Time;durP1;ratioP1;P1;durP2;ratioP2;P2;SDS_P1;SDS_P2;PMS_P1;PMS_P2;Temp;Humidity;BMP_temperature;BMP_pressure;BME280_temperature;BME280_humidity;BME280_pressure;Samples;Min_cycle;Max_cycle;Signal;HPM_P1;HPM_P2
2021/01/23 00:01:51;;;;;;;18.52;10.07;;;3.30;99.90;;;;;;4971951;28;20103;-77
2021/01/23 00:04:17;;;;;;;14.85;9.20;;;3.60;99.90;;;;;;4976024;28;20162;-76
2021/01/23 00:06:42;;;;;;;9.93;5.70;;;3.80;99.90;;;;;;4972773;28;20079;-77
2021/01/23 00:09:08;;;;;;;8.90;6.55;;;3.80;99.90;;;;;;4971981;28;20075;-77
2021/01/23 00:11:33;;;;;;;9.60;6.50;;;3.70;99.90;;;;;;4973902;28;20075;-77
2021/01/23 00:13:59;;;;;;;10.98;6.28;;;3.50;99.90;;;;;;4991495;28;20094;-76
2021/01/23 00:16:24;;;;;;;11.38;6.15;;;3.60;99.90;;;;;;5007461;28;20497;-76
2021/01/23 00:18:50;;;;;;;12.85;7.25;;;3.70;99.90;;;;;;5003419;28;20137;-76
2021/01/23 00:21:15;;;;;;;9.75;6.18;;;3.70;99.90;;;;;;4985924;28;20091;-76
2021/01/23 00:23:41;;;;;;;9.40;5.90;;;3.80;99.90;;;;;;4992052;28;20097;-76
2021/01/23 00:26:06;;;;;;;8.38;6.35;;;4.10;99.90;;;;;;4993548;28;20079;-76
2021/01/23 00:28:33;;;;;;;7.68;5.15;;;4.20;99.90;;;;;;4988030;28;20424;-76
2021/01/23 00:31:00;;;;;;;8.00;5.43;;;4.30;99.90;;;;;;4987828;28;20202;-77
2021/01/23 00:33:25;;;;;;;8.75;5.78;;;4.10;99.90;;;;;;4990806;28;20570;-77
2021/01/23 00:35:51;;;;;;;7.88;5.47;;;4.10;99.90;;;;;;4986330;28;20083;-77
2021/01/23 00:38:17;;;;;;;9.85;5.55;;;4.00;99.90;;;;;;4973894;28;20463;-76
2021/01/23 00:40:42;;;;;;;8.50;5.97;;;3.90;99.90;;;;;;4973229;28;20091;-76
2021/01/23 00:43:08;;;;;;;7.90;5.53;;;3.90;99.90;;;;;;4992744;28;20121;-77
2021/01/23 00:45:34;;;;;;;9.65;5.55;;;3.90;99.90;;;;;;4975393;28;20158;-77
2021/01/23 00:48:10;;;;;;;9.85;5.55;;;3.90;99.90;;;;;;4988568;28;20133;-76
2021/01/23 00:50:36;;;;;;;9.75;6.47;;;3.80;99.90;;;;;;4985654;28;20086;-77
2021/01/23 00:53:01;;;;;;;8.88;6.07;;;3.80;99.90;;;;;;4974435;28;20090;-76
2021/01/23 00:55:27;;;;;;;8.25;6.25;;;3.80;99.90;;;;;;4981588;28;20502;-76
2021/01/23 00:57:53;;;;;;;8.35;5.57;;;3.90;99.90;;;;;;4982029;28;20095;-76
2021/01/23 01:00:18;;;;;;;7.55;4.75;;;3.90;99.90;;;;;;4999389;28;20609;-77
2021/01/23 01:02:44;;;;;;;8.02;5.85;;;3.80;99.90;;;;;;4984856;28;20541;-76
2021/01/23 01:05:10;;;;;;;10.55;6.28;;;3.80;99.90;;;;;;4978096;28;20471;-77
2021/01/23 01:07:35;;;;;;;9.15;6.20;;;3.70;99.90;;;;;;4983246;28;20446;-77
2021/01/23 01:10:02;;;;;;;10.88;6.05;;;3.70;99.90;;;;;;4988920;28;20097;-77
2021/01/23 01:12:28;;;;;;;10.65;7.15;;;3.70;99.90;;;;;;4995763;28;20113;-76
2021/01/23 01:14:53;;;;;;;8.82;6.07;;;3.80;99.90;;;;;;4987337;28;20099;-76
2021/01/23 01:17:19;;;;;;;9.10;6.35;;;3.80;99.90;;;;;;4971869;28;20112;-77
2021/01/23 01:19:44;;;;;;;10.88;6.68;;;3.70;99.90;;;;;;4986251;28;20114;-77
2021/01/23 01:22:10;;;;;;;8.70;6.85;;;3.60;99.90;;;;;;4992152;28;20475;-77
2021/01/23 01:24:35;;;;;;;12.13;7.53;;;3.50;99.90;;;;;;4978217;28;20103;-77
2021/01/23 01:27:01;;;;;;;12.55;8.18;;;3.50;99.90;;;;;;5002896;28;20553;-77
2021/01/23 01:29:26;;;;;;;9.82;7.18;;;3.50;99.90;;;;;;5001498;28;20679;-76
2021/01/23 01:31:52;;;;;;;10.45;7.50;;;3.50;99.90;;;;;;4999960;28;20162;-76
2021/01/23 01:34:17;;;;;;;10.52;8.13;;;3.50;99.90;;;;;;4986361;28;20110;-76
2021/01/23 01:36:43;;;;;;;11.00;7.88;;;3.50;99.90;;;;;;4979895;28;20086;-76
2021/01/23 01:39:09;;;;;;;11.93;8.15;;;3.60;99.90;;;;;;4983571;28;20086;-76
2021/01/23 01:41:40;;;;;;;12.35;8.25;;;3.60;99.90;;;;;;4971976;28;20466;-76
2021/01/23 01:44:07;;;;;;;9.38;7.93;;;3.60;99.90;;;;;;4972964;28;20194;-76
2021/01/23 01:46:37;;;;;;;12.02;8.90;;;3.60;99.90;;;;;;4989825;28;20082;-76
2021/01/23 01:49:04;;;;;;;11.57;8.40;;;3.60;99.90;;;;;;4979574;28;20079;-77
2021/01/23 01:51:29;;;;;;;12.75;8.70;;;3.60;99.90;;;;;;4973354;28;20158;-76
2021/01/23 01:53:56;;;;;;;13.35;9.32;;;3.60;99.90;;;;;;4971286;28;20194;-76
2021/01/23 01:56:22;;;;;;;12.98;8.75;;;3.60;99.90;;;;;;4972706;28;20082;-76
2021/01/23 01:58:47;;;;;;;13.02;9.35;;;3.60;99.90;;;;;;4973456;28;20079;-76
2021/01/23 02:01:13;;;;;;;13.90;8.50;;;3.60;99.90;;;;;;4971436;28;20114;-76
2021/01/23 02:03:57;;;;;;;14.57;9.88;;;3.60;99.90;;;;;;4984845;28;20099;-77
2021/01/23 02:06:52;;;;;;;14.05;9.75;;;3.60;99.90;;;;;;4970235;28;20114;-76
2021/01/23 02:09:39;;;;;;;13.25;9.68;;;3.70;99.90;;;;;;4972163;28;20076;-77
2021/01/23 02:12:19;;;;;;;14.73;10.48;;;3.70;99.90;;;;;;4971986;28;20079;-77
2021/01/23 02:15:02;;;;;;;14.77;11.13;;;3.70;99.90;;;;;;4971160;28;20087;-77
2021/01/23 02:17:42;;;;;;;13.25;9.63;;;3.70;99.90;;;;;;4970775;28;20086;-77
2021/01/23 02:20:42;;;;;;;14.77;10.05;;;3.70;99.90;;;;;;4976216;28;20078;-76
2021/01/23 02:23:16;;;;;;;14.07;9.77;;;3.80;99.90;;;;;;4990053;28;20086;-76
2021/01/23 02:26:11;;;;;;;15.70;10.73;;;3.80;99.90;;;;;;4987773;28;20074;-76
2021/01/23 02:29:04;;;;;;;14.27;10.70;;;3.80;99.90;;;;;;4990683;28;20157;-76
2021/01/23 02:31:38;;;;;;;13.30;9.57;;;3.80;99.90;;;;;;4990686;28;20071;-76
2021/01/23 02:34:09;;;;;;;14.32;9.90;;;3.80;99.90;;;;;;4988482;28;20116;-76
2021/01/23 02:36:36;;;;;;;14.35;10.02;;;3.80;99.90;;;;;;4990446;28;20075;-76
2021/01/23 02:39:03;;;;;;;13.65;8.88;;;3.80;99.90;;;;;;4988981;28;20082;-76
2021/01/23 02:41:30;;;;;;;14.75;9.48;;;3.80;99.90;;;;;;4990579;28;20756;-76
2021/01/23 02:43:55;;;;;;;14.25;9.63;;;3.80;99.90;;;;;;4992675;28;20121;-76
2021/01/23 02:46:21;;;;;;;11.45;7.65;;;3.80;99.90;;;;;;4990159;28;20408;-76
2021/01/23 02:48:48;;;;;;;9.25;6.78;;;3.80;99.90;;;;;;5009141;28;20133;-76
2021/01/23 02:51:46;;;;;;;7.97;5.78;;;3.80;99.90;;;;;;4992765;28;20165;-76
2021/01/23 02:54:26;;;;;;;6.60;5.07;;;3.80;99.90;;;;;;4992453;28;20564;-76
2021/01/23 02:56:54;;;;;;;5.13;3.90;;;3.80;99.90;;;;;;4992833;28;20497;-77
2021/01/23 02:59:21;;;;;;;5.32;4.50;;;3.70;99.90;;;;;;4994385;28;20531;-77
2021/01/23 03:01:49;;;;;;;5.35;3.65;;;3.70;99.90;;;;;;4993659;28;20614;-76
2021/01/23 03:04:16;;;;;;;4.78;3.60;;;3.60;99.90;;;;;;4992345;28;20149;-76
2021/01/23 03:06:42;;;;;;;2.30;1.75;;;3.50;99.90;;;;;;4993812;28;20125;-77
2021/01/23 03:09:22;;;;;;;1.27;1.17;;;3.40;99.90;;;;;;4994376;28;20086;-77
2021/01/23 03:11:48;;;;;;;1.33;1.13;;;3.40;99.90;;;;;;4994862;28;20078;-77
2021/01/23 03:14:14;;;;;;;1.10;0.95;;;3.20;99.90;;;;;;4994091;28;20091;-77
2021/01/23 03:16:54;;;;;;;1.05;0.93;;;3.10;99.90;;;;;;5009596;28;20081;-76
2021/01/23 03:19:21;;;;;;;2.05;0.70;;;3.00;99.90;;;;;;4994699;28;20430;-76
2021/01/23 03:21:47;;;;;;;0.85;0.75;;;3.10;99.90;;;;;;5008430;28;20113;-76
2021/01/23 03:24:14;;;;;;;1.05;0.70;;;3.00;99.90;;;;;;5013337;28;20090;-77
2021/01/23 03:26:40;;;;;;;0.98;0.60;;;3.00;99.90;;;;;;5013789;28;20153;-76
2021/01/23 03:29:06;;;;;;;0.40;0.40;;;2.90;99.90;;;;;;5013679;28;20070;-76
2021/01/23 03:31:32;;;;;;;0.93;0.70;;;2.90;99.90;;;;;;5013809;28;20078;-76
2021/01/23 03:33:57;;;;;;;0.98;0.60;;;2.80;99.90;;;;;;5005251;28;20110;-75
2021/01/23 03:36:24;;;;;;;0.57;0.57;;;2.90;99.90;;;;;;5009489;28;20097;-77
2021/01/23 03:38:50;;;;;;;0.52;0.43;;;2.90;99.90;;;;;;4993485;28;20090;-77
2021/01/23 03:41:16;;;;;;;1.08;0.50;;;2.80;99.90;;;;;;4992425;28;20547;-76
2021/01/23 03:43:41;;;;;;;1.25;0.50;;;2.80;99.90;;;;;;4993911;28;20157;-77
2021/01/23 03:46:07;;;;;;;0.63;0.47;;;2.80;99.90;;;;;;4993359;28;20415;-77
2021/01/23 03:48:32;;;;;;;0.80;0.60;;;2.60;99.90;;;;;;4993816;28;20071;-76
2021/01/23 03:50:58;;;;;;;0.63;0.55;;;2.70;99.90;;;;;;4993512;28;20438;-76
2021/01/23 03:53:24;;;;;;;0.60;0.52;;;2.70;99.90;;;;;;4991800;28;20186;-76
2021/01/23 03:55:49;;;;;;;0.43;0.40;;;2.60;99.90;;;;;;5008059;28;20102;-76
2021/01/23 03:58:18;;;;;;;0.63;0.50;;;2.60;99.90;;;;;;5008497;28;20075;-76
2021/01/23 04:00:45;;;;;;;0.30;0.28;;;2.50;99.90;;;;;;5008331;28;20095;-77
2021/01/23 04:03:10;;;;;;;0.20;0.20;;;2.50;99.90;;;;;;4992965;28;20095;-76
2021/01/23 04:05:36;;;;;;;0.38;0.30;;;2.50;99.90;;;;;;4991024;28;20066;-76
2021/01/23 04:08:02;;;;;;;0.52;0.20;;;2.50;99.90;;;;;;4992660;28;20079;-76
2021/01/23 04:10:28;;;;;;;0.20;0.20;;;2.50;99.90;;;;;;4992753;28;20078;-76
2021/01/23 04:12:54;;;;;;;0.40;0.30;;;2.50;99.90;;;;;;4992656;28;20075;-77
2021/01/23 04:15:20;;;;;;;0.38;0.30;;;2.40;99.90;;;;;;4992238;28;20074;-76
2021/01/23 04:17:45;;;;;;;0.30;0.30;;;2.40;99.90;;;;;;4992640;28;20067;-77
2021/01/23 04:20:11;;;;;;;0.20;0.20;;;2.40;99.90;;;;;;4991236;28;20641;-76
2021/01/23 04:22:37;;;;;;;0.20;0.20;;;2.40;99.90;;;;;;4992314;28;20129;-76
2021/01/23 04:25:04;;;;;;;0.10;0.10;;;2.40;99.90;;;;;;4992318;28;20097;-77
2021/01/23 04:27:30;;;;;;;0.38;0.25;;;2.40;99.90;;;;;;4992645;28;20091;-77
2021/01/23 04:29:55;;;;;;;0.30;0.20;;;2.30;99.90;;;;;;4992316;28;20102;-76
2021/01/23 04:32:21;;;;;;;0.22;0.13;;;2.40;99.90;;;;;;4992901;28;20079;-77
2021/01/23 04:34:47;;;;;;;0.30;0.20;;;2.40;99.90;;;;;;4991352;28;20559;-77
2021/01/23 04:37:13;;;;;;;0.43;0.25;;;2.20;99.90;;;;;;5008449;28;20129;-77
2021/01/23 04:39:39;;;;;;;0.30;0.28;;;2.20;99.90;;;;;;4995743;28;20071;-76
2021/01/23 04:42:09;;;;;;;0.50;0.30;;;2.20;99.90;;;;;;4995837;28;20521;-76
2021/01/23 04:44:36;;;;;;;0.20;0.20;;;2.20;99.90;;;;;;4992231;28;20490;-76
2021/01/23 04:47:03;;;;;;;0.13;0.13;;;2.10;99.90;;;;;;5007606;28;20075;-76
2021/01/23 04:49:30;;;;;;;0.25;0.20;;;2.20;99.90;;;;;;4990682;28;20078;-76
2021/01/23 04:51:56;;;;;;;0.68;0.20;;;2.10;99.90;;;;;;4998129;28;20128;-76
2021/01/23 04:54:22;;;;;;;0.43;0.20;;;2.10;99.90;;;;;;4988801;28;20099;-76
2021/01/23 04:56:52;;;;;;;0.20;0.20;;;2.10;99.90;;;;;;4992228;28;20083;-76
2021/01/23 04:59:18;;;;;;;0.20;0.20;;;2.20;99.90;;;;;;4992227;28;20109;-76
2021/01/23 05:02:03;;;;;;;0.10;0.10;;;2.10;99.90;;;;;;4993004;28;20182;-76
2021/01/23 05:04:42;;;;;;;0.30;0.20;;;2.20;99.90;;;;;;4989920;28;20090;-76
2021/01/23 05:07:07;;;;;;;0.10;0.10;;;2.10;99.90;;;;;;4989845;28;20162;-76
2021/01/23 05:09:33;;;;;;;0.15;0.15;;;2.20;99.90;;;;;;5006567;28;20213;-77
2021/01/23 05:11:59;;;;;;;0.10;0.10;;;2.10;99.90;;;;;;4990732;28;20102;-76
2021/01/23 05:14:24;;;;;;;0.43;0.10;;;2.10;99.90;;;;;;4991251;28;20870;-76
2021/01/23 05:16:50;;;;;;;0.30;0.30;;;2.00;99.90;;;;;;4991740;28;20067;-76
2021/01/23 05:19:16;;;;;;;0.10;0.10;;;2.00;99.90;;;;;;4991680;28;20082;-76
2021/01/23 05:21:59;;;;;;;0.40;0.20;;;2.00;99.90;;;;;;4987019;28;20114;-76
2021/01/23 05:24:25;;;;;;;0.13;0.10;;;2.00;99.90;;;;;;4980013;28;20090;-76
2021/01/23 05:26:57;;;;;;;0.20;0.10;;;2.00;99.90;;;;;;5006552;28;20101;-77
2021/01/23 05:29:22;;;;;;;0.63;0.28;;;2.00;99.90;;;;;;4991583;28;20186;-76
2021/01/23 05:32:14;;;;;;;0.35;0.20;;;2.00;99.90;;;;;;4991477;28;20158;-77
2021/01/23 05:34:39;;;;;;;0.20;0.10;;;2.10;99.90;;;;;;4990845;28;20098;-76
2021/01/23 05:37:05;;;;;;;0.47;0.10;;;2.00;99.90;;;;;;4990669;28;20785;-76
2021/01/23 05:39:48;;;;;;;0.20;0.15;;;2.00;99.90;;;;;;4991180;28;20078;-76
2021/01/23 05:42:14;;;;;;;0.35;0.22;;;1.90;99.90;;;;;;4991237;28;20095;-76
2021/01/23 05:44:40;;;;;;;0.10;0.10;;;1.90;99.90;;;;;;4988349;28;20722;-76
2021/01/23 05:47:25;;;;;;;0.98;0.38;;;1.90;99.90;;;;;;4989749;28;20107;-76
2021/01/23 05:49:52;;;;;;;0.40;0.20;;;2.00;99.90;;;;;;4990875;28;20079;-76
2021/01/23 05:52:17;;;;;;;0.30;0.10;;;1.90;99.90;;;;;;4990203;28;20091;-77
2021/01/23 05:54:43;;;;;;;0.55;0.20;;;1.90;99.90;;;;;;4989840;28;20233;-77
2021/01/23 05:57:10;;;;;;;0.20;0.20;;;1.90;99.90;;;;;;4992152;28;20086;-76
2021/01/23 05:59:35;;;;;;;0.30;0.10;;;1.90;99.90;;;;;;4992402;28;20138;-77
2021/01/23 06:02:03;;;;;;;0.10;0.10;;;1.90;99.90;;;;;;4991859;28;20593;-76
2021/01/23 06:04:30;;;;;;;0.38;0.20;;;1.90;99.90;;;;;;5006501;28;20454;-77
2021/01/23 06:06:56;;;;;;;0.32;0.20;;;1.90;99.90;;;;;;4991580;28;20134;-77
2021/01/23 06:09:36;;;;;;;0.50;0.10;;;1.90;99.90;;;;;;4991749;28;20103;-77
2021/01/23 06:12:02;;;;;;;0.22;0.15;;;1.90;99.90;;;;;;5007027;28;20082;-77
2021/01/23 06:14:38;;;;;;;0.20;0.10;;;1.90;99.90;;;;;;4988818;28;20929;-76
2021/01/23 06:17:05;;;;;;;0.30;0.30;;;1.90;99.90;;;;;;4990334;28;20079;-76
2021/01/23 06:19:30;;;;;;;0.70;0.20;;;1.90;99.90;;;;;;4988972;28;20089;-76
2021/01/23 06:21:56;;;;;;;0.68;0.35;;;1.90;99.90;;;;;;4982813;28;20111;-75
2021/01/23 06:24:30;;;;;;;0.10;0.10;;;1.90;99.90;;;;;;4985310;28;20099;-75
2021/01/23 06:26:59;;;;;;;0.10;0.10;;;2.00;99.90;;;;;;4971297;28;20154;-75
2021/01/23 06:29:36;;;;;;;0.40;0.40;;;2.00;99.90;;;;;;4999811;28;20085;-75
2021/01/23 06:32:13;;;;;;;0.10;0.10;;;2.00;99.90;;;;;;5010426;28;20070;-75
2021/01/23 06:34:53;;;;;;;0.15;0.15;;;1.90;99.90;;;;;;5009682;28;20086;-76
2021/01/23 06:37:23;;;;;;;0.28;0.28;;;2.00;99.90;;;;;;5009543;28;20070;-76
2021/01/23 06:40:05;;;;;;;0.20;0.20;;;2.00;99.90;;;;;;5008935;28;20557;-76
2021/01/23 06:42:32;;;;;;;0.57;0.32;;;2.00;99.90;;;;;;5008802;28;20128;-76
2021/01/23 06:45:34;;;;;;;0.20;0.20;;;2.00;99.90;;;;;;5009402;28;20144;-76
2021/01/23 06:47:59;;;;;;;0.55;0.30;;;1.90;99.90;;;;;;4968606;28;20098;-76
2021/01/23 06:50:39;;;;;;;0.30;0.30;;;1.90;99.90;;;;;;5001735;28;20082;-76
2021/01/23 06:53:08;;;;;;;0.32;0.32;;;1.90;99.90;;;;;;4994351;28;20070;-76
2021/01/23 06:55:55;;;;;;;0.43;0.38;;;1.90;99.90;;;;;;4989945;28;20067;-76
2021/01/23 06:58:21;;;;;;;0.73;0.40;;;1.90;99.90;;;;;;4995252;28;20121;-76
2021/01/23 07:00:49;;;;;;;0.30;0.30;;;2.00;99.90;;;;;;5010071;28;20550;-76
2021/01/23 07:03:15;;;;;;;0.75;0.50;;;1.90;99.90;;;;;;5010060;28;20102;-76
2021/01/23 07:05:55;;;;;;;0.50;0.40;;;1.90;99.90;;;;;;5007383;28;20071;-76
2021/01/23 07:08:23;;;;;;;1.00;0.50;;;2.00;99.90;;;;;;5008486;28;20162;-76
2021/01/23 07:11:11;;;;;;;1.50;0.57;;;2.00;99.90;;;;;;5009956;28;20074;-76
2021/01/23 07:13:38;;;;;;;0.60;0.45;;;2.00;99.90;;;;;;5009914;28;20078;-77
2021/01/23 07:16:04;;;;;;;0.70;0.52;;;2.00;99.90;;;;;;5008142;28;20807;-78
2021/01/23 07:18:30;;;;;;;0.50;0.50;;;2.00;99.90;;;;;;5011602;28;20067;-77
2021/01/23 07:20:56;;;;;;;0.35;0.30;;;2.00;99.90;;;;;;5008803;28;20112;-77
2021/01/23 07:23:22;;;;;;;1.17;0.60;;;2.00;99.90;;;;;;4972930;28;20095;-76
2021/01/23 07:25:51;;;;;;;1.63;0.88;;;1.90;99.90;;;;;;4970941;28;20075;-77
2021/01/23 07:28:19;;;;;;;5.35;0.70;;;2.00;99.90;;;;;;4971148;28;20435;-76
2021/01/23 07:30:46;;;;;;;1.25;0.90;;;2.00;99.90;;;;;;4974282;28;20071;-76
2021/01/23 07:33:12;;;;;;;3.40;1.10;;;2.00;99.90;;;;;;4974383;28;20083;-75
2021/01/23 07:35:39;;;;;;;1.17;0.75;;;2.00;99.90;;;;;;4973570;28;20099;-75
2021/01/23 07:38:06;;;;;;;3.63;1.60;;;2.00;99.90;;;;;;4974077;28;20102;-76
2021/01/23 07:40:36;;;;;;;2.38;1.48;;;2.00;99.90;;;;;;4974598;28;20170;-76
2021/01/23 07:43:04;;;;;;;0.93;0.80;;;2.00;99.90;;;;;;4973780;28;20166;-77
2021/01/23 07:45:29;;;;;;;0.82;0.70;;;2.00;99.90;;;;;;4990285;28;20078;-77
2021/01/23 07:47:59;;;;;;;1.10;0.85;;;2.10;99.90;;;;;;4981590;28;20141;-76
2021/01/23 07:50:25;;;;;;;0.75;0.60;;;2.20;99.90;;;;;;4982429;28;20071;-76
2021/01/23 07:52:51;;;;;;;2.83;1.45;;;2.10;99.90;;;;;;4993942;28;20541;-76
2021/01/23 07:55:17;;;;;;;1.13;0.90;;;2.10;99.90;;;;;;4988762;28;20155;-77
2021/01/23 07:58:02;;;;;;;1.38;1.23;;;2.10;99.90;;;;;;4986377;28;20098;-76
2021/01/23 08:00:29;;;;;;;1.73;0.90;;;2.10;99.90;;;;;;4973738;28;20540;-76
2021/01/23 08:02:55;;;;;;;1.40;1.30;;;2.10;99.90;;;;;;4976666;28;20090;-76
2021/01/23 08:05:20;;;;;;;2.72;1.92;;;2.10;99.90;;;;;;4981696;28;20075;-76
2021/01/23 08:07:46;;;;;;;2.00;1.15;;;2.10;99.90;;;;;;4983800;28;20075;-76
2021/01/23 08:10:12;;;;;;;2.33;1.50;;;2.20;99.90;;;;;;4983988;28;20110;-76
2021/01/23 08:13:08;;;;;;;2.78;1.45;;;2.20;99.90;;;;;;4984458;28;20170;-76
2021/01/23 08:15:36;;;;;;;2.90;1.63;;;2.10;99.90;;;;;;4973896;28;20218;-76
2021/01/23 08:18:15;;;;;;;1.70;1.20;;;2.10;99.90;;;;;;4981029;28;20094;-76
2021/01/23 08:20:41;;;;;;;1.35;0.65;;;2.10;99.90;;;;;;4975167;28;20091;-76
2021/01/23 08:23:11;;;;;;;1.95;1.42;;;2.10;99.90;;;;;;4979613;28;20079;-75
2021/01/23 08:25:44;;;;;;;1.15;1.05;;;2.10;99.90;;;;;;4968183;28;20669;-76
2021/01/23 08:28:11;;;;;;;0.90;0.75;;;2.10;99.90;;;;;;4972161;28;20072;-75
2021/01/23 08:30:38;;;;;;;0.85;0.82;;;2.10;99.90;;;;;;4987745;28;20086;-76
2021/01/23 08:33:11;;;;;;;0.73;0.60;;;2.10;99.90;;;;;;4988385;28;20174;-76
2021/01/23 08:35:40;;;;;;;1.13;0.98;;;2.10;99.90;;;;;;4992559;28;20086;-76
2021/01/23 08:38:09;;;;;;;0.75;0.70;;;2.10;99.90;;;;;;4990694;28;20498;-76
2021/01/23 08:40:35;;;;;;;0.82;0.70;;;2.10;99.90;;;;;;4980285;28;20095;-76
2021/01/23 08:43:01;;;;;;;0.90;0.80;;;2.20;99.90;;;;;;4989639;28;20082;-76
2021/01/23 08:45:27;;;;;;;1.48;1.27;;;2.10;99.90;;;;;;4990814;28;20086;-76
2021/01/23 08:47:53;;;;;;;1.90;1.08;;;2.10;99.90;;;;;;4987076;28;20145;-76
2021/01/23 08:50:19;;;;;;;2.80;1.40;;;2.10;99.90;;;;;;4987434;28;20486;-77
2021/01/23 08:52:45;;;;;;;3.17;1.60;;;2.10;99.90;;;;;;4993323;28;20129;-76
2021/01/23 08:55:11;;;;;;;2.33;1.55;;;2.20;99.90;;;;;;5011283;28;20082;-77
2021/01/23 08:57:37;;;;;;;2.83;1.70;;;2.20;99.90;;;;;;5006496;28;20086;-77
2021/01/23 09:00:05;;;;;;;2.13;1.73;;;2.10;99.90;;;;;;4990726;28;20074;-78
2021/01/23 09:02:31;;;;;;;3.90;1.60;;;2.00;99.90;;;;;;4974452;28;20091;-78
2021/01/23 09:04:56;;;;;;;3.05;1.55;;;2.10;99.90;;;;;;4985779;28;20144;-78
2021/01/23 09:07:22;;;;;;;3.42;1.98;;;2.10;99.90;;;;;;4987088;28;20110;-77
2021/01/23 09:09:48;;;;;;;3.28;2.17;;;2.10;99.90;;;;;;4977470;28;20075;-76
2021/01/23 09:12:13;;;;;;;2.78;1.80;;;2.20;99.90;;;;;;4973730;28;20071;-77
2021/01/23 09:14:39;;;;;;;5.10;2.47;;;2.20;99.90;;;;;;4986523;28;20097;-77
2021/01/23 09:17:05;;;;;;;1.95;1.23;;;2.20;99.90;;;;;;4992016;28;20438;-77
2021/01/23 09:19:31;;;;;;;3.85;1.95;;;2.10;99.90;;;;;;4987004;28;20079;-80
2021/01/23 09:21:57;;;;;;;5.18;2.03;;;2.20;99.90;;;;;;4988298;28;20098;-80
2021/01/23 09:24:23;;;;;;;3.55;2.33;;;2.20;99.90;;;;;;4999044;28;20086;-79
2021/01/23 09:26:48;;;;;;;5.10;3.42;;;2.10;99.90;;;;;;4992596;28;20082;-78
2021/01/23 09:29:14;;;;;;;4.35;1.80;;;2.10;99.90;;;;;;4990476;28;20173;-78
2021/01/23 09:31:40;;;;;;;5.78;2.70;;;2.20;99.90;;;;;;4977985;28;20087;-78
2021/01/23 09:34:06;;;;;;;4.75;2.80;;;2.20;99.90;;;;;;4981010;28;20117;-80
2021/01/23 09:36:32;;;;;;;3.75;2.00;;;2.20;99.90;;;;;;4975703;28;20067;-78
2021/01/23 09:38:58;;;;;;;4.97;2.60;;;2.20;99.90;;;;;;4978481;28;20490;-78
2021/01/23 09:41:24;;;;;;;5.40;2.13;;;2.10;99.90;;;;;;4987654;28;20119;-79
2021/01/23 09:43:50;;;;;;;6.22;3.30;;;2.20;99.90;;;;;;4992014;28;20126;-81
2021/01/23 09:46:15;;;;;;;5.80;3.83;;;2.20;99.90;;;;;;4991305;28;20468;-77
2021/01/23 09:48:41;;;;;;;15.70;7.38;;;2.20;99.90;;;;;;4991831;28;20345;-80
2021/01/23 09:51:06;;;;;;;13.20;5.38;;;2.10;99.90;;;;;;4992444;28;20077;-82
2021/01/23 09:53:32;;;;;;;2.58;2.05;;;2.20;99.90;;;;;;4995262;28;20104;-82
2021/01/23 09:55:58;;;;;;;3.83;2.13;;;2.20;99.90;;;;;;4980647;28;20158;-77
2021/01/23 09:58:23;;;;;;;2.55;2.20;;;2.30;99.90;;;;;;4979256;28;20086;-77
2021/01/23 10:00:49;;;;;;;4.28;2.80;;;2.30;99.90;;;;;;4982151;28;20094;-77
2021/01/23 10:03:15;;;;;;;7.65;5.10;;;2.50;99.90;;;;;;4989067;28;20138;-77
2021/01/23 10:05:40;;;;;;;4.15;3.05;;;2.60;99.90;;;;;;4989385;28;20067;-79
2021/01/23 10:08:07;;;;;;;3.42;2.40;;;2.60;99.90;;;;;;4977406;28;20153;-75
2021/01/23 10:10:33;;;;;;;2.15;1.77;;;2.70;99.90;;;;;;4972719;28;20087;-77
2021/01/23 10:12:59;;;;;;;3.63;1.80;;;2.70;99.90;;;;;;4983437;28;20082;-79
2021/01/23 10:15:25;;;;;;;6.10;2.60;;;2.80;99.90;;;;;;4979484;28;20129;-79
2021/01/23 10:17:50;;;;;;;3.85;2.30;;;2.70;99.90;;;;;;4987445;28;20166;-76
2021/01/23 10:20:16;;;;;;;4.32;2.38;;;2.70;99.90;;;;;;4993218;28;20111;-78
2021/01/23 10:22:42;;;;;;;2.60;2.30;;;2.70;99.90;;;;;;4991956;28;20090;-75
2021/01/23 10:25:08;;;;;;;4.28;2.60;;;2.70;99.90;;;;;;4996570;28;20562;-78
2021/01/23 10:27:35;;;;;;;2.70;1.75;;;2.70;99.90;;;;;;4987873;28;20126;-80
2021/01/23 10:30:01;;;;;;;19.33;9.50;;;2.80;99.90;;;;;;4973477;28;20067;-76
2021/01/23 10:32:26;;;;;;;7.10;3.03;;;2.90;99.90;;;;;;4972687;28;20086;-76
2021/01/23 10:34:52;;;;;;;3.80;2.10;;;2.70;99.90;;;;;;4973935;28;20095;-78
2021/01/23 10:37:18;;;;;;;5.07;3.75;;;2.70;99.90;;;;;;4986901;28;20074;-77
2021/01/23 10:39:44;;;;;;;9.85;4.63;;;2.80;99.90;;;;;;4995983;28;20067;-79
2021/01/23 10:42:09;;;;;;;5.85;3.53;;;2.70;99.90;;;;;;4980768;28;20094;-80
2021/01/23 10:44:39;;;;;;;7.55;4.45;;;2.70;99.90;;;;;;4977785;28;20103;-79
2021/01/23 10:47:09;;;;;;;10.13;4.90;;;2.80;99.90;;;;;;4986486;28;20080;-77
2021/01/23 10:49:36;;;;;;;4.20;3.28;;;2.90;99.90;;;;;;4974841;28;20134;-76
2021/01/23 10:52:01;;;;;;;4.72;3.10;;;2.90;99.90;;;;;;4992274;28;20158;-75
2021/01/23 10:54:28;;;;;;;3.92;2.78;;;2.90;99.90;;;;;;4981521;28;20511;-78
2021/01/23 10:56:54;;;;;;;3.50;2.15;;;2.90;99.90;;;;;;4989894;28;20082;-77
2021/01/23 10:59:20;;;;;;;3.67;2.70;;;2.80;99.90;;;;;;4981274;28;20201;-76
2021/01/23 11:01:47;;;;;;;4.97;2.10;;;2.80;99.90;;;;;;4987330;28;20079;-77
2021/01/23 11:04:12;;;;;;;4.22;2.50;;;2.90;99.90;;;;;;4996707;28;20677;-76
2021/01/23 11:06:38;;;;;;;2.08;1.85;;;2.90;99.90;;;;;;4981935;28;20075;-75
2021/01/23 11:09:04;;;;;;;3.00;1.77;;;2.70;99.90;;;;;;4986264;28;20113;-76
2021/01/23 11:11:33;;;;;;;3.35;1.85;;;2.80;99.90;;;;;;4982689;28;20086;-76
2021/01/23 11:13:59;;;;;;;3.22;2.30;;;2.80;99.90;;;;;;4988813;28;20613;-76
2021/01/23 11:16:25;;;;;;;3.33;2.20;;;2.90;99.90;;;;;;4984297;28;20085;-76
2021/01/23 11:18:51;;;;;;;3.83;2.67;;;2.80;99.90;;;;;;4988289;28;20158;-76
2021/01/23 11:21:17;;;;;;;2.83;1.95;;;2.80;99.90;;;;;;4986700;28;20091;-76
2021/01/23 11:23:43;;;;;;;3.55;2.45;;;2.90;99.90;;;;;;4986894;28;20114;-75
2021/01/23 11:26:08;;;;;;;4.32;2.88;;;2.90;99.90;;;;;;4986710;28;20787;-76
2021/01/23 11:28:34;;;;;;;6.95;5.80;;;2.90;99.90;;;;;;4974493;28;20130;-76
2021/01/23 11:31:00;;;;;;;6.40;4.30;;;3.00;99.90;;;;;;4977989;28;20071;-76
2021/01/23 11:33:26;;;;;;;3.40;2.40;;;3.00;99.90;;;;;;4971200;28;20091;-76
2021/01/23 11:35:51;;;;;;;6.00;4.15;;;3.00;99.90;;;;;;4973697;28;20136;-75
2021/01/23 11:38:17;;;;;;;8.07;6.32;;;3.10;99.90;;;;;;4985646;28;20105;-75
2021/01/23 11:40:43;;;;;;;7.75;5.60;;;3.00;99.90;;;;;;4983236;28;20169;-76
2021/01/23 11:43:10;;;;;;;7.32;4.55;;;3.10;99.90;;;;;;4959484;28;622412;-75
2021/01/23 11:45:35;;;;;;;6.25;3.78;;;3.10;99.90;;;;;;4984434;28;20163;-76
2021/01/23 11:48:01;;;;;;;6.25;3.78;;;3.10;99.90;;;;;;4977020;28;20798;-76
2021/01/23 11:50:27;;;;;;;7.38;4.07;;;3.20;99.90;;;;;;4988641;28;20670;-76
2021/01/23 11:52:53;;;;;;;3.22;2.15;;;3.20;99.90;;;;;;4988989;28;20109;-76
2021/01/23 11:55:18;;;;;;;1.73;1.35;;;3.20;99.90;;;;;;4989322;28;20078;-76
2021/01/23 11:57:44;;;;;;;3.58;2.30;;;3.20;99.90;;;;;;4979328;28;20109;-75
2021/01/23 12:00:10;;;;;;;4.65;3.10;;;3.10;99.90;;;;;;4973966;28;20067;-76
2021/01/23 12:02:36;;;;;;;4.25;2.45;;;3.20;99.90;;;;;;5006882;28;20502;-76
2021/01/23 12:05:01;;;;;;;4.47;2.58;;;3.30;99.90;;;;;;4990639;28;20102;-77
2021/01/23 12:07:28;;;;;;;8.55;5.20;;;3.30;99.90;;;;;;4982658;28;20079;-76
2021/01/23 12:09:54;;;;;;;13.73;6.97;;;3.40;99.90;;;;;;5002687;28;20079;-78
2021/01/23 12:12:19;;;;;;;7.13;4.43;;;3.40;99.90;;;;;;4992973;28;20083;-76
2021/01/23 12:14:47;;;;;;;7.03;4.03;;;3.50;99.90;;;;;;5003252;28;20582;-77
2021/01/23 12:17:13;;;;;;;4.68;3.80;;;3.50;99.90;;;;;;4978748;28;20087;-79
2021/01/23 12:19:41;;;;;;;2.72;2.30;;;3.50;99.90;;;;;;4998682;28;20091;-77
2021/01/23 12:22:08;;;;;;;2.58;1.85;;;3.50;99.90;;;;;;4987355;28;20101;-76
2021/01/23 12:24:33;;;;;;;4.32;2.60;;;3.40;99.90;;;;;;4996837;28;20935;-77
2021/01/23 12:27:00;;;;;;;3.65;2.47;;;3.50;99.90;;;;;;4992591;28;20094;-76
2021/01/23 12:29:27;;;;;;;3.25;2.40;;;3.50;99.90;;;;;;4991778;28;20194;-77
2021/01/23 12:31:52;;;;;;;7.90;5.05;;;3.60;99.90;;;;;;4973070;28;20079;-76
2021/01/23 12:34:18;;;;;;;3.97;2.58;;;3.60;99.90;;;;;;4982203;28;20195;-76
2021/01/23 12:36:44;;;;;;;5.63;3.58;;;3.60;99.90;;;;;;4992483;28;20133;-76
2021/01/23 12:39:12;;;;;;;13.57;5.50;;;3.60;99.90;;;;;;4992654;28;20274;-77
2021/01/23 12:42:09;;;;;;;;;;;;;;;;;;;;;
2021/01/23 12:44:35;;;;;;;2.97;2.03;;;3.70;99.90;;;;;;4992283;28;20102;-77
2021/01/23 12:47:01;;;;;;;4.07;2.95;;;3.70;99.90;;;;;;4986797;28;20150;-78
2021/01/23 12:49:27;;;;;;;5.05;2.95;;;3.60;99.90;;;;;;4986517;28;20099;-77
2021/01/23 12:51:53;;;;;;;10.98;5.57;;;3.70;99.90;;;;;;4976233;28;20165;-77
2021/01/23 12:54:21;;;;;;;16.05;8.52;;;3.80;99.90;;;;;;4973184;28;20119;-78
2021/01/23 12:56:46;;;;;;;12.40;6.05;;;3.70;99.90;;;;;;4982959;28;20083;-78
2021/01/23 12:59:12;;;;;;;7.88;4.00;;;3.80;99.90;;;;;;4981631;28;20098;-81
2021/01/23 13:01:41;;;;;;;13.23;6.57;;;3.80;99.90;;;;;;4991415;28;20098;-79